sensor_id;sensor_type;location;lat;lon;timestamp;pressure;altitude;pressure_sealevel;temperature;humidity
35577;BME280;21680;52.400;16.920;2023-03-03T00:01:27;101313.91;;;-1.49;85.37
35577;BME280;21680;52.400;16.920;2023-03-03T00:03:53;101308.81;;;-1.49;85.46
35577;BME280;21680;52.400;16.920;2023-03-03T00:06:19;101309.88;;;-1.49;85.43
35577;BME280;21680;52.400;16.920;2023-03-03T00:08:45;101307.05;;;-1.51;85.54
35577;BME280;21680;52.400;16.920;2023-03-03T00:11:11;101308.30;;;-1.50;85.48
35577;BME280;21680;52.400;16.920;2023-03-03T00:13:48;101308.65;;;-1.49;85.69
35577;BME280;21680;52.400;16.920;2023-03-03T00:16:29;101308.27;;;-1.52;85.69
35577;BME280;21680;52.400;16.920;2023-03-03T00:18:55;101310.35;;;-1.53;85.63
35577;BME280;21680;52.400;16.920;2023-03-03T00:21:24;101308.41;;;-1.53;85.84
35577;BME280;21680;52.400;16.920;2023-03-03T00:23:51;101310.02;;;-1.52;85.79
35577;BME280;21680;52.400;16.920;2023-03-03T00:26:36;101310.14;;;-1.54;85.60
35577;BME280;21680;52.400;16.920;2023-03-03T00:29:24;101307.23;;;-1.61;85.67
35577;BME280;21680;52.400;16.920;2023-03-03T00:31:50;101308.43;;;-1.73;85.74
35577;BME280;21680;52.400;16.920;2023-03-03T00:36:41;101300.02;;;-1.74;85.99
35577;BME280;21680;52.400;16.920;2023-03-03T00:39:21;101297.34;;;-1.76;86.04
35577;BME280;21680;52.400;16.920;2023-03-03T00:41:48;101297.63;;;-1.80;86.08
35577;BME280;21680;52.400;16.920;2023-03-03T00:44:40;101301.19;;;-1.86;85.86
35577;BME280;21680;52.400;16.920;2023-03-03T00:52:37;101304.54;;;-1.95;86.20
35577;BME280;21680;52.400;16.920;2023-03-03T00:55:06;101306.77;;;-1.97;86.19
35577;BME280;21680;52.400;16.920;2023-03-03T00:57:31;101307.27;;;-1.99;86.27
35577;BME280;21680;52.400;16.920;2023-03-03T00:59:57;101305.50;;;-2.00;86.16
35577;BME280;21680;52.400;16.920;2023-03-03T01:02:22;101294.45;;;-2.01;86.21
35577;BME280;21680;52.400;16.920;2023-03-03T01:04:50;101292.21;;;-1.99;86.52
35577;BME280;21680;52.400;16.920;2023-03-03T01:07:16;101286.39;;;-2.01;86.42
35577;BME280;21680;52.400;16.920;2023-03-03T01:09:43;101283.88;;;-2.04;86.46
35577;BME280;21680;52.400;16.920;2023-03-03T01:12:09;101287.74;;;-2.04;86.62
35577;BME280;21680;52.400;16.920;2023-03-03T01:14:34;101282.17;;;-2.02;86.78
35577;BME280;21680;52.400;16.920;2023-03-03T01:16:59;101288.14;;;-2.01;86.55
35577;BME280;21680;52.400;16.920;2023-03-03T01:19:25;101284.81;;;-2.02;86.53
35577;BME280;21680;52.400;16.920;2023-03-03T01:21:50;101281.48;;;-2.01;86.68
35577;BME280;21680;52.400;16.920;2023-03-03T01:24:16;101281.77;;;-2.05;86.97
35577;BME280;21680;52.400;16.920;2023-03-03T01:26:41;101270.35;;;-2.07;86.72
35577;BME280;21680;52.400;16.920;2023-03-03T01:29:06;101274.88;;;-2.08;86.72
35577;BME280;21680;52.400;16.920;2023-03-03T01:31:32;101269.84;;;-2.07;86.87
35577;BME280;21680;52.400;16.920;2023-03-03T01:33:57;101271.61;;;-2.05;86.88
35577;BME280;21680;52.400;16.920;2023-03-03T01:36:24;101273.70;;;-2.06;86.95
35577;BME280;21680;52.400;16.920;2023-03-03T01:38:49;101262.65;;;-2.07;86.90
35577;BME280;21680;52.400;16.920;2023-03-03T01:41:15;101265.40;;;-2.10;87.12
35577;BME280;21680;52.400;16.920;2023-03-03T01:43:46;101260.95;;;-2.14;87.01
35577;BME280;21680;52.400;16.920;2023-03-03T01:46:27;101253.09;;;-2.13;87.12
35577;BME280;21680;52.400;16.920;2023-03-03T01:49:32;101257.49;;;-2.11;87.04
35577;BME280;21680;52.400;16.920;2023-03-03T01:52:00;101248.74;;;-2.11;87.57
35577;BME280;21680;52.400;16.920;2023-03-03T01:54:30;101246.23;;;-2.14;87.02
35577;BME280;21680;52.400;16.920;2023-03-03T01:57:00;101249.67;;;-2.18;87.07
35577;BME280;21680;52.400;16.920;2023-03-03T01:59:31;101246.60;;;-2.23;87.31
35577;BME280;21680;52.400;16.920;2023-03-03T02:01:57;101242.62;;;-2.30;87.26
35577;BME280;21680;52.400;16.920;2023-03-03T02:04:23;101248.80;;;-2.36;87.39
35577;BME280;21680;52.400;16.920;2023-03-03T02:06:54;101254.69;;;-2.40;87.55
35577;BME280;21680;52.400;16.920;2023-03-03T02:09:29;101260.90;;;-2.44;87.37
35577;BME280;21680;52.400;16.920;2023-03-03T02:12:01;101258.30;;;-2.52;87.51
35577;BME280;21680;52.400;16.920;2023-03-03T02:14:27;101251.30;;;-2.52;88.10
35577;BME280;21680;52.400;16.920;2023-03-03T02:16:53;101254.84;;;-2.50;87.75
35577;BME280;21680;52.400;16.920;2023-03-03T02:19:32;101264.34;;;-2.48;88.21
35577;BME280;21680;52.400;16.920;2023-03-03T02:22:00;101270.17;;;-2.45;87.96
35577;BME280;21680;52.400;16.920;2023-03-03T02:24:34;101275.26;;;-2.44;88.24
35577;BME280;21680;52.400;16.920;2023-03-03T02:27:02;101278.84;;;-2.40;88.30
35577;BME280;21680;52.400;16.920;2023-03-03T02:29:28;101278.88;;;-2.38;88.04
35577;BME280;21680;52.400;16.920;2023-03-03T02:31:53;101276.65;;;-2.36;88.22
35577;BME280;21680;52.400;16.920;2023-03-03T02:34:18;101264.41;;;-2.35;88.43
35577;BME280;21680;52.400;16.920;2023-03-03T02:36:44;101258.14;;;-2.33;88.33
35577;BME280;21680;52.400;16.920;2023-03-03T02:39:14;101258.31;;;-2.34;88.27
35577;BME280;21680;52.400;16.920;2023-03-03T02:44:37;101256.61;;;-2.31;88.79
35577;BME280;21680;52.400;16.920;2023-03-03T02:47:03;101266.91;;;-2.32;88.62
35577;BME280;21680;52.400;16.920;2023-03-03T02:49:31;101282.75;;;-2.27;88.76
35577;BME280;21680;52.400;16.920;2023-03-03T02:51:58;101282.10;;;-2.25;88.59
35577;BME280;21680;52.400;16.920;2023-03-03T02:54:26;101283.38;;;-2.22;88.74
35577;BME280;21680;52.400;16.920;2023-03-03T02:56:52;101276.16;;;-2.24;88.67
35577;BME280;21680;52.400;16.920;2023-03-03T02:59:17;101276.89;;;-2.32;88.54
35577;BME280;21680;52.400;16.920;2023-03-03T03:01:43;101275.17;;;-2.31;88.61
35577;BME280;21680;52.400;16.920;2023-03-03T03:04:12;101263.63;;;-2.30;88.78
35577;BME280;21680;52.400;16.920;2023-03-03T03:06:38;101262.91;;;-2.31;88.51
35577;BME280;21680;52.400;16.920;2023-03-03T03:09:05;101269.36;;;-2.33;88.83
35577;BME280;21680;52.400;16.920;2023-03-03T03:11:31;101280.41;;;-2.32;89.09
35577;BME280;21680;52.400;16.920;2023-03-03T03:13:56;101285.33;;;-2.31;89.01
35577;BME280;21680;52.400;16.920;2023-03-03T03:16:22;101273.23;;;-2.32;89.09
35577;BME280;21680;52.400;16.920;2023-03-03T03:18:47;101274.79;;;-2.33;88.80
35577;BME280;21680;52.400;16.920;2023-03-03T03:21:15;101269.89;;;-2.32;89.12
35577;BME280;21680;52.400;16.920;2023-03-03T03:23:40;101270.13;;;-2.38;88.94
35577;BME280;21680;52.400;16.920;2023-03-03T03:26:07;101266.29;;;-2.47;88.79
35577;BME280;21680;52.400;16.920;2023-03-03T03:28:32;101258.04;;;-2.48;89.09
35577;BME280;21680;52.400;16.920;2023-03-03T03:30:58;101252.63;;;-2.48;89.10
35577;BME280;21680;52.400;16.920;2023-03-03T03:33:23;101256.58;;;-2.51;89.21
35577;BME280;21680;52.400;16.920;2023-03-03T03:35:49;101254.95;;;-2.53;89.20
35577;BME280;21680;52.400;16.920;2023-03-03T03:38:14;101249.48;;;-2.56;89.29
35577;BME280;21680;52.400;16.920;2023-03-03T03:40:40;101251.06;;;-2.56;89.14
35577;BME280;21680;52.400;16.920;2023-03-03T03:43:05;101247.59;;;-2.54;89.59
35577;BME280;21680;52.400;16.920;2023-03-03T03:45:31;101255.33;;;-2.52;89.25
35577;BME280;21680;52.400;16.920;2023-03-03T03:47:57;101253.30;;;-2.49;89.69
35577;BME280;21680;52.400;16.920;2023-03-03T03:50:22;101255.59;;;-2.48;89.69
35577;BME280;21680;52.400;16.920;2023-03-03T03:52:49;101249.86;;;-2.46;89.56
35577;BME280;21680;52.400;16.920;2023-03-03T03:55:15;101243.02;;;-2.47;89.67
35577;BME280;21680;52.400;16.920;2023-03-03T03:57:41;101244.06;;;-2.47;89.52
35577;BME280;21680;52.400;16.920;2023-03-03T04:00:08;101241.41;;;-2.48;89.66
35577;BME280;21680;52.400;16.920;2023-03-03T04:02:34;101241.60;;;-2.47;89.67
35577;BME280;21680;52.400;16.920;2023-03-03T04:05:00;101245.15;;;-2.45;89.67
35577;BME280;21680;52.400;16.920;2023-03-03T04:07:25;101246.59;;;-2.43;89.95
35577;BME280;21680;52.400;16.920;2023-03-03T04:09:51;101242.02;;;-2.44;89.93
35577;BME280;21680;52.400;16.920;2023-03-03T04:12:16;101242.14;;;-2.47;90.14
35577;BME280;21680;52.400;16.920;2023-03-03T04:14:41;101234.77;;;-2.48;90.16
35577;BME280;21680;52.400;16.920;2023-03-03T04:17:07;101232.29;;;-2.49;89.75
35577;BME280;21680;52.400;16.920;2023-03-03T04:19:32;101230.05;;;-2.48;89.91
35577;BME280;21680;52.400;16.920;2023-03-03T04:21:57;101226.40;;;-2.46;89.97
35577;BME280;21680;52.400;16.920;2023-03-03T04:24:23;101228.55;;;-2.44;90.14
35577;BME280;21680;52.400;16.920;2023-03-03T04:26:48;101225.24;;;-2.42;90.06
35577;BME280;21680;52.400;16.920;2023-03-03T04:29:13;101222.59;;;-2.44;90.01
35577;BME280;21680;52.400;16.920;2023-03-03T04:31:38;101223.45;;;-2.44;90.31
35577;BME280;21680;52.400;16.920;2023-03-03T04:34:04;101219.27;;;-2.44;90.23
35577;BME280;21680;52.400;16.920;2023-03-03T04:36:29;101217.15;;;-2.45;90.15
35577;BME280;21680;52.400;16.920;2023-03-03T04:38:54;101211.53;;;-2.46;89.96
35577;BME280;21680;52.400;16.920;2023-03-03T04:41:20;101211.71;;;-2.45;90.08
35577;BME280;21680;52.400;16.920;2023-03-03T04:43:45;101209.96;;;-2.46;90.14
35577;BME280;21680;52.400;16.920;2023-03-03T04:46:10;101210.66;;;-2.45;90.16
35577;BME280;21680;52.400;16.920;2023-03-03T04:48:36;101207.88;;;-2.45;89.93
35577;BME280;21680;52.400;16.920;2023-03-03T04:51:02;101218.35;;;-2.46;90.22
35577;BME280;21680;52.400;16.920;2023-03-03T04:53:28;101211.58;;;-2.53;90.01
35577;BME280;21680;52.400;16.920;2023-03-03T04:55:53;101211.11;;;-2.59;90.24
35577;BME280;21680;52.400;16.920;2023-03-03T04:58:19;101211.61;;;-2.62;90.19
35577;BME280;21680;52.400;16.920;2023-03-03T05:00:46;101215.78;;;-2.63;90.33
35577;BME280;21680;52.400;16.920;2023-03-03T05:03:12;101222.27;;;-2.63;90.29
35577;BME280;21680;52.400;16.920;2023-03-03T05:05:38;101220.84;;;-2.64;90.76
35577;BME280;21680;52.400;16.920;2023-03-03T05:08:05;101218.54;;;-2.66;90.56
35577;BME280;21680;52.400;16.920;2023-03-03T05:10:30;101220.67;;;-2.64;90.82
35577;BME280;21680;52.400;16.920;2023-03-03T05:12:55;101217.35;;;-2.64;90.79
35577;BME280;21680;52.400;16.920;2023-03-03T05:15:21;101215.27;;;-2.63;90.90
35577;BME280;21680;52.400;16.920;2023-03-03T05:17:46;101215.14;;;-2.60;90.90
35577;BME280;21680;52.400;16.920;2023-03-03T05:20:12;101216.03;;;-2.58;90.73
35577;BME280;21680;52.400;16.920;2023-03-03T05:22:38;101214.70;;;-2.54;90.94
35577;BME280;21680;52.400;16.920;2023-03-03T05:25:04;101207.92;;;-2.51;91.32
35577;BME280;21680;52.400;16.920;2023-03-03T05:27:29;101204.63;;;-2.50;90.83
35577;BME280;21680;52.400;16.920;2023-03-03T05:29:55;101209.16;;;-2.51;90.95
35577;BME280;21680;52.400;16.920;2023-03-03T05:32:21;101214.91;;;-2.52;90.93
35577;BME280;21680;52.400;16.920;2023-03-03T05:34:46;101219.08;;;-2.54;90.98
35577;BME280;21680;52.400;16.920;2023-03-03T05:37:11;101221.16;;;-2.55;90.86
35577;BME280;21680;52.400;16.920;2023-03-03T05:39:37;101221.90;;;-2.53;91.26
35577;BME280;21680;52.400;16.920;2023-03-03T05:42:03;101216.87;;;-2.51;91.22
35577;BME280;21680;52.400;16.920;2023-03-03T05:44:28;101222.14;;;-2.49;91.18
35577;BME280;21680;52.400;16.920;2023-03-03T05:46:53;101237.05;;;-2.48;91.32
35577;BME280;21680;52.400;16.920;2023-03-03T05:49:20;101243.02;;;-2.46;91.10
35577;BME280;21680;52.400;16.920;2023-03-03T05:51:45;101247.09;;;-2.44;91.21
35577;BME280;21680;52.400;16.920;2023-03-03T05:54:11;101254.82;;;-2.42;91.31
35577;BME280;21680;52.400;16.920;2023-03-03T05:56:36;101264.41;;;-2.44;91.25
35577;BME280;21680;52.400;16.920;2023-03-03T05:59:01;101273.46;;;-2.46;91.39
35577;BME280;21680;52.400;16.920;2023-03-03T06:01:27;101285.35;;;-2.47;91.38
35577;BME280;21680;52.400;16.920;2023-03-03T06:03:53;101285.95;;;-2.52;91.41
35577;BME280;21680;52.400;16.920;2023-03-03T06:06:18;101284.45;;;-2.57;91.81
35577;BME280;21680;52.400;16.920;2023-03-03T06:08:44;101269.36;;;-2.60;91.82
35577;BME280;21680;52.400;16.920;2023-03-03T06:11:10;101245.23;;;-2.59;92.08
35577;BME280;21680;52.400;16.920;2023-03-03T06:13:37;101245.77;;;-2.57;91.74
35577;BME280;21680;52.400;16.920;2023-03-03T06:16:02;101239.27;;;-2.60;91.87
35577;BME280;21680;52.400;16.920;2023-03-03T06:18:27;101229.07;;;-2.64;91.80
35577;BME280;21680;52.400;16.920;2023-03-03T06:20:53;101245.52;;;-2.63;91.84
35577;BME280;21680;52.400;16.920;2023-03-03T06:23:20;101249.38;;;-2.63;91.98
35577;BME280;21680;52.400;16.920;2023-03-03T06:25:46;101246.95;;;-2.62;92.07
35577;BME280;21680;52.400;16.920;2023-03-03T06:28:12;101252.73;;;-2.62;92.04
35577;BME280;21680;52.400;16.920;2023-03-03T06:30:37;101258.48;;;-2.62;92.21
35577;BME280;21680;52.400;16.920;2023-03-03T06:33:03;101264.80;;;-2.62;92.30
35577;BME280;21680;52.400;16.920;2023-03-03T06:35:28;101266.57;;;-2.60;92.32
35577;BME280;21680;52.400;16.920;2023-03-03T06:37:54;101265.92;;;-2.56;92.38
35577;BME280;21680;52.400;16.920;2023-03-03T06:40:19;101271.55;;;-2.55;92.61
35577;BME280;21680;52.400;16.920;2023-03-03T06:42:44;101266.16;;;-2.53;92.50
35577;BME280;21680;52.400;16.920;2023-03-03T06:45:10;101265.14;;;-2.52;92.37
35577;BME280;21680;52.400;16.920;2023-03-03T06:47:36;101264.11;;;-2.50;92.67
35577;BME280;21680;52.400;16.920;2023-03-03T06:50:01;101267.51;;;-2.47;92.46
35577;BME280;21680;52.400;16.920;2023-03-03T06:52:26;101264.02;;;-2.46;92.68
35577;BME280;21680;52.400;16.920;2023-03-03T06:54:54;101264.05;;;-2.44;92.41
35577;BME280;21680;52.400;16.920;2023-03-03T06:57:32;101262.85;;;-2.43;92.62
35577;BME280;21680;52.400;16.920;2023-03-03T07:00:11;101261.79;;;-2.44;92.63
35577;BME280;21680;52.400;16.920;2023-03-03T07:02:38;101269.01;;;-2.42;92.61
35577;BME280;21680;52.400;16.920;2023-03-03T07:05:08;101267.64;;;-2.40;92.56
35577;BME280;21680;52.400;16.920;2023-03-03T07:07:35;101268.42;;;-2.44;92.79
35577;BME280;21680;52.400;16.920;2023-03-03T07:10:17;101275.02;;;-2.48;92.92
35577;BME280;21680;52.400;16.920;2023-03-03T07:12:44;101274.67;;;-2.47;93.08
35577;BME280;21680;52.400;16.920;2023-03-03T07:15:20;101265.56;;;-2.48;92.87
35577;BME280;21680;52.400;16.920;2023-03-03T07:17:52;101263.69;;;-2.45;93.01
35577;BME280;21680;52.400;16.920;2023-03-03T07:20:22;101263.45;;;-2.40;93.37
35577;BME280;21680;52.400;16.920;2023-03-03T07:22:48;101274.50;;;-2.38;92.99
35577;BME280;21680;52.400;16.920;2023-03-03T07:25:31;101278.89;;;-2.38;92.82
35577;BME280;21680;52.400;16.920;2023-03-03T07:28:14;101280.64;;;-2.38;93.08
35577;BME280;21680;52.400;16.920;2023-03-03T07:30:44;101284.08;;;-2.40;92.98
35577;BME280;21680;52.400;16.920;2023-03-03T07:33:32;101283.08;;;-2.38;93.15
35577;BME280;21680;52.400;16.920;2023-03-03T07:36:01;101284.62;;;-2.31;93.51
35577;BME280;21680;52.400;16.920;2023-03-03T07:38:30;101284.15;;;-2.28;93.41
35577;BME280;21680;52.400;16.920;2023-03-03T07:41:00;101292.62;;;-2.24;93.55
35577;BME280;21680;52.400;16.920;2023-03-03T07:43:40;101294.57;;;-2.23;93.65
35577;BME280;21680;52.400;16.920;2023-03-03T07:48:37;101303.41;;;-2.18;93.59
35577;BME280;21680;52.400;16.920;2023-03-03T07:51:12;101306.83;;;-2.22;93.50
35577;BME280;21680;52.400;16.920;2023-03-03T07:53:39;101299.31;;;-2.22;93.49
35577;BME280;21680;52.400;16.920;2023-03-03T07:56:14;101298.50;;;-2.18;93.50
35577;BME280;21680;52.400;16.920;2023-03-03T07:58:42;101299.28;;;-2.14;93.74
35577;BME280;21680;52.400;16.920;2023-03-03T08:04:11;101300.89;;;-2.13;93.75
35577;BME280;21680;52.400;16.920;2023-03-03T08:06:44;101303.08;;;-2.08;93.94
35577;BME280;21680;52.400;16.920;2023-03-03T08:09:15;101304.14;;;-1.98;94.01
35577;BME280;21680;52.400;16.920;2023-03-03T08:12:00;101300.30;;;-1.87;94.10
35577;BME280;21680;52.400;16.920;2023-03-03T08:14:35;101300.45;;;-1.78;94.10
35577;BME280;21680;52.400;16.920;2023-03-03T08:17:12;101305.09;;;-1.74;93.92
35577;BME280;21680;52.400;16.920;2023-03-03T08:19:40;101300.36;;;-1.74;93.56
35577;BME280;21680;52.400;16.920;2023-03-03T08:22:16;101296.66;;;-1.74;93.93
35577;BME280;21680;52.400;16.920;2023-03-03T08:24:42;101297.59;;;-1.72;93.98
35577;BME280;21680;52.400;16.920;2023-03-03T08:27:07;101306.23;;;-1.69;93.96
35577;BME280;21680;52.400;16.920;2023-03-03T08:29:33;101314.70;;;-1.65;93.94
35577;BME280;21680;52.400;16.920;2023-03-03T08:31:58;101309.52;;;-1.60;94.05
35577;BME280;21680;52.400;16.920;2023-03-03T08:34:23;101314.29;;;-1.58;93.93
35577;BME280;21680;52.400;16.920;2023-03-03T08:36:49;101320.84;;;-1.54;93.99
35577;BME280;21680;52.400;16.920;2023-03-03T08:39:15;101317.63;;;-1.57;93.93
35577;BME280;21680;52.400;16.920;2023-03-03T08:41:40;101316.02;;;-1.60;93.75
35577;BME280;21680;52.400;16.920;2023-03-03T08:44:08;101307.19;;;-1.64;93.93
35577;BME280;21680;52.400;16.920;2023-03-03T08:46:33;101306.04;;;-1.59;93.92
35577;BME280;21680;52.400;16.920;2023-03-03T08:48:59;101308.20;;;-1.56;93.90
35577;BME280;21680;52.400;16.920;2023-03-03T08:51:24;101302.00;;;-1.49;93.99
35577;BME280;21680;52.400;16.920;2023-03-03T08:53:50;101300.27;;;-1.47;93.79
35577;BME280;21680;52.400;16.920;2023-03-03T08:56:15;101300.54;;;-1.41;93.89
35577;BME280;21680;52.400;16.920;2023-03-03T08:58:41;101300.79;;;-1.37;93.92
35577;BME280;21680;52.400;16.920;2023-03-03T09:01:13;101294.31;;;-1.36;93.88
35577;BME280;21680;52.400;16.920;2023-03-03T09:03:42;101297.17;;;-1.33;93.76
35577;BME280;21680;52.400;16.920;2023-03-03T09:06:08;101294.81;;;-1.38;93.71
35577;BME280;21680;52.400;16.920;2023-03-03T09:08:34;101292.43;;;-1.44;93.58
35577;BME280;21680;52.400;16.920;2023-03-03T09:10:59;101294.54;;;-1.44;93.92
35577;BME280;21680;52.400;16.920;2023-03-03T09:13:28;101294.48;;;-1.48;94.07
35577;BME280;21680;52.400;16.920;2023-03-03T09:15:55;101298.51;;;-1.48;93.93
35577;BME280;21680;52.400;16.920;2023-03-03T09:18:31;101307.13;;;-1.46;93.87
35577;BME280;21680;52.400;16.920;2023-03-03T09:21:00;101309.97;;;-1.43;94.10
35577;BME280;21680;52.400;16.920;2023-03-03T09:23:34;101304.51;;;-1.46;93.82
35577;BME280;21680;52.400;16.920;2023-03-03T09:26:29;101299.52;;;-1.40;94.05
35577;BME280;21680;52.400;16.920;2023-03-03T09:29:00;101305.29;;;-1.29;94.04
35577;BME280;21680;52.400;16.920;2023-03-03T09:31:48;101303.27;;;-1.24;94.19
35577;BME280;21680;52.400;16.920;2023-03-03T09:34:20;101303.48;;;-1.21;93.94
35577;BME280;21680;52.400;16.920;2023-03-03T09:36:46;101299.00;;;-1.16;94.08
35577;BME280;21680;52.400;16.920;2023-03-03T09:39:17;101305.88;;;-1.13;94.00
35577;BME280;21680;52.400;16.920;2023-03-03T10:06:15;101293.96;;;-0.88;94.05
35577;BME280;21680;52.400;16.920;2023-03-03T10:11:49;101294.92;;;-0.81;94.12
35577;BME280;21680;52.400;16.920;2023-03-03T10:14:29;101291.33;;;-0.75;94.29
35577;BME280;21680;52.400;16.920;2023-03-03T10:19:38;101294.42;;;-0.66;94.27
35577;BME280;21680;52.400;16.920;2023-03-03T10:30:23;101290.42;;;-0.63;94.02
35577;BME280;21680;52.400;16.920;2023-03-03T10:36:22;101303.73;;;-0.65;93.97
35577;BME280;21680;52.400;16.920;2023-03-03T10:50:12;101298.48;;;-0.50;94.18
35577;BME280;21680;52.400;16.920;2023-03-03T10:55:16;101301.70;;;-0.46;94.09
35577;BME280;21680;52.400;16.920;2023-03-03T11:00:27;101292.20;;;-0.48;93.86
35577;BME280;21680;52.400;16.920;2023-03-03T11:05:50;101278.02;;;-0.44;93.93
35577;BME280;21680;52.400;16.920;2023-03-03T11:08:25;101281.23;;;-0.40;93.92
35577;BME280;21680;52.400;16.920;2023-03-03T11:11:06;101274.91;;;-0.39;93.89
35577;BME280;21680;52.400;16.920;2023-03-03T11:13:42;101272.67;;;-0.36;93.97
35577;BME280;21680;52.400;16.920;2023-03-03T11:16:36;101267.48;;;-0.28;93.92
35577;BME280;21680;52.400;16.920;2023-03-03T11:22:53;101256.77;;;-0.28;93.82
35577;BME280;21680;52.400;16.920;2023-03-03T11:31:06;101244.83;;;-0.10;93.73
35577;BME280;21680;52.400;16.920;2023-03-03T11:33:39;101242.04;;;-0.08;93.72
35577;BME280;21680;52.400;16.920;2023-03-03T11:39:22;101246.85;;;-0.01;93.61
35577;BME280;21680;52.400;16.920;2023-03-03T11:41:58;101249.80;;;-0.05;93.51
35577;BME280;21680;52.400;16.920;2023-03-03T11:44:48;101249.98;;;-0.06;93.49
35577;BME280;21680;52.400;16.920;2023-03-03T11:47:24;101242.64;;;0.01;93.52
35577;BME280;21680;52.400;16.920;2023-03-03T11:49:56;101241.92;;;0.01;93.46
35577;BME280;21680;52.400;16.920;2023-03-03T11:52:50;101239.83;;;0.02;93.40
35577;BME280;21680;52.400;16.920;2023-03-03T11:55:29;101235.66;;;0.09;93.43
35577;BME280;21680;52.400;16.920;2023-03-03T11:58:27;101235.52;;;0.12;93.27
35577;BME280;21680;52.400;16.920;2023-03-03T12:01:21;101234.67;;;0.16;93.26
35577;BME280;21680;52.400;16.920;2023-03-03T12:04:04;101228.88;;;0.16;93.17
35577;BME280;21680;52.400;16.920;2023-03-03T12:12:23;101227.78;;;0.12;92.97
35577;BME280;21680;52.400;16.920;2023-03-03T12:17:49;101228.21;;;0.22;92.94
35577;BME280;21680;52.400;16.920;2023-03-03T12:20:33;101225.82;;;0.30;92.91
35577;BME280;21680;52.400;16.920;2023-03-03T12:26:02;101219.16;;;0.34;92.73
35577;BME280;21680;52.400;16.920;2023-03-03T12:28:37;101213.77;;;0.39;92.83
35577;BME280;21680;52.400;16.920;2023-03-03T12:31:16;101212.39;;;0.44;92.67
35577;BME280;21680;52.400;16.920;2023-03-03T12:33:54;101210.27;;;0.44;92.57
35577;BME280;21680;52.400;16.920;2023-03-03T12:41:59;101210.40;;;0.37;92.25
35577;BME280;21680;52.400;16.920;2023-03-03T12:44:40;101217.25;;;0.36;92.35
35577;BME280;21680;52.400;16.920;2023-03-03T12:47:15;101211.96;;;0.34;92.18
35577;BME280;21680;52.400;16.920;2023-03-03T12:52:45;101214.58;;;0.30;92.19
35577;BME280;21680;52.400;16.920;2023-03-03T12:55:24;101213.75;;;0.38;92.25
35577;BME280;21680;52.400;16.920;2023-03-03T13:03:34;101209.58;;;0.43;92.00
35577;BME280;21680;52.400;16.920;2023-03-03T13:06:10;101203.98;;;0.49;92.06
35577;BME280;21680;52.400;16.920;2023-03-03T13:08:47;101208.03;;;0.51;91.95
35577;BME280;21680;52.400;16.920;2023-03-03T13:16:42;101211.73;;;0.50;91.92
35577;BME280;21680;52.400;16.920;2023-03-03T13:19:18;101213.34;;;0.56;92.07
35577;BME280;21680;52.400;16.920;2023-03-03T13:22:05;101209.15;;;0.58;91.90
35577;BME280;21680;52.400;16.920;2023-03-03T13:24:55;101204.21;;;0.58;91.60
35577;BME280;21680;52.400;16.920;2023-03-03T13:27:26;101197.89;;;0.58;91.63
35577;BME280;21680;52.400;16.920;2023-03-03T13:32:58;101200.05;;;0.69;91.59
35577;BME280;21680;52.400;16.920;2023-03-03T13:37:56;101194.05;;;0.62;91.41
35577;BME280;21680;52.400;16.920;2023-03-03T13:40:26;101194.05;;;0.62;91.31
35577;BME280;21680;52.400;16.920;2023-03-03T13:43:01;101190.19;;;0.64;91.33
35577;BME280;21680;52.400;16.920;2023-03-03T13:53:57;101187.55;;;0.63;91.04
35577;BME280;21680;52.400;16.920;2023-03-03T13:56:48;101187.92;;;0.70;91.11
35577;BME280;21680;52.400;16.920;2023-03-03T13:59:41;101186.55;;;0.75;91.05
35577;BME280;21680;52.400;16.920;2023-03-03T14:02:20;101182.14;;;0.71;91.05
35577;BME280;21680;52.400;16.920;2023-03-03T14:05:14;101179.30;;;0.69;90.91
35577;BME280;21680;52.400;16.920;2023-03-03T14:07:48;101169.77;;;0.63;90.83
35577;BME280;21680;52.400;16.920;2023-03-03T14:10:31;101172.40;;;0.60;90.63
35577;BME280;21680;52.400;16.920;2023-03-03T14:13:11;101166.07;;;0.61;90.64
35577;BME280;21680;52.400;16.920;2023-03-03T14:15:49;101160.65;;;0.66;90.69
35577;BME280;21680;52.400;16.920;2023-03-03T14:18:29;101165.41;;;0.69;90.70
35577;BME280;21680;52.400;16.920;2023-03-03T14:21:44;101160.67;;;0.71;90.54
35577;BME280;21680;52.400;16.920;2023-03-03T14:23:49;101149.42;;;0.73;90.73
35577;BME280;21680;52.400;16.920;2023-03-03T14:26:15;101155.23;;;0.75;90.42
35577;BME280;21680;52.400;16.920;2023-03-03T14:28:47;101155.59;;;0.75;90.50
35577;BME280;21680;52.400;16.920;2023-03-03T14:31:21;101151.19;;;0.74;90.41
35577;BME280;21680;52.400;16.920;2023-03-03T14:34:25;101151.73;;;0.76;90.34
35577;BME280;21680;52.400;16.920;2023-03-03T14:37:07;101142.23;;;0.73;90.31
35577;BME280;21680;52.400;16.920;2023-03-03T14:39:38;101142.04;;;0.73;90.25
35577;BME280;21680;52.400;16.920;2023-03-03T14:42:13;101138.17;;;0.72;90.23
35577;BME280;21680;52.400;16.920;2023-03-03T14:47:24;101138.16;;;0.72;90.02
35577;BME280;21680;52.400;16.920;2023-03-03T14:49:51;101139.38;;;0.68;90.13
35577;BME280;21680;52.400;16.920;2023-03-03T14:52:24;101139.54;;;0.67;90.04
35577;BME280;21680;52.400;16.920;2023-03-03T14:54:55;101139.02;;;0.66;90.08
35577;BME280;21680;52.400;16.920;2023-03-03T15:00:28;101152.70;;;0.60;89.83
35577;BME280;21680;52.400;16.920;2023-03-03T15:03:19;101146.00;;;0.57;89.84
35577;BME280;21680;52.400;16.920;2023-03-03T15:05:55;101140.52;;;0.52;89.76
35577;BME280;21680;52.400;16.920;2023-03-03T15:08:35;101133.48;;;0.50;89.82
35577;BME280;21680;52.400;16.920;2023-03-03T15:11:12;101130.33;;;0.52;89.87
35577;BME280;21680;52.400;16.920;2023-03-03T15:13:38;101136.30;;;0.51;89.57
35577;BME280;21680;52.400;16.920;2023-03-03T15:16:08;101132.43;;;0.51;89.61
35577;BME280;21680;52.400;16.920;2023-03-03T15:19:13;101125.73;;;0.50;89.65
35577;BME280;21680;52.400;16.920;2023-03-03T15:21:36;101127.34;;;0.51;89.60